Time;durP1;ratioP1;P1;durP2;ratioP2;P2;SDS_P1;SDS_P2;PMS_P1;PMS_P2;Temp;Humidity;BMP_temperature;BMP_pressure;BME280_temperature;BME280_humidity;BME280_pressure;Samples;Min_cycle;Max_cycle;Signal;HPM_P1;HPM_P2
2021/07/11 00:00:49;;;;;;;14.50;11.73;;;;;;;14.98;100.00;93384.19;1835963;77;21018;-80
2021/07/11 00:03:18;;;;;;;37.35;23.67;;;;;;;14.95;100.00;93381.52;1815408;78;21077;-80
2021/07/11 00:05:44;;;;;;;46.10;30.45;;;;;;;14.90;100.00;93380.06;1860534;74;21037;-82
2021/07/11 00:08:10;;;;;;;12.60;10.10;;;;;;;14.88;100.00;93381.06;1859231;74;21502;-79
2021/07/11 00:10:38;;;;;;;11.00;7.83;;;;;;;14.91;100.00;93382.97;1827250;76;21030;-80
2021/07/11 00:13:05;;;;;;;7.75;6.65;;;;;;;14.91;100.00;93380.83;1881379;76;21081;-79
2021/07/11 00:15:32;;;;;;;7.92;7.12;;;;;;;14.88;100.00;93381.67;1882520;76;21547;-81
2021/07/11 00:18:02;;;;;;;10.18;7.03;;;;;;;14.83;100.00;93380.81;1882669;76;21088;-81
2021/07/11 00:20:29;;;;;;;7.58;6.22;;;;;;;14.75;100.00;93379.58;1884555;76;21029;-80
2021/07/11 00:22:56;;;;;;;7.47;6.70;;;;;;;14.71;100.00;93383.59;1885040;75;21112;-82
2021/07/11 00:25:23;;;;;;;7.05;6.15;;;;;;;14.65;100.00;93383.90;1885834;76;21041;-84
2021/07/11 00:27:50;;;;;;;7.20;5.83;;;;;;;14.58;100.00;93386.17;1885620;76;21068;-81
2021/07/11 00:30:18;;;;;;;7.62;5.60;;;;;;;14.52;100.00;93392.75;1885867;75;21080;-82
2021/07/11 00:32:45;;;;;;;8.68;6.83;;;;;;;14.48;100.00;93395.33;1885977;75;21046;-82
2021/07/11 00:35:11;;;;;;;5.62;5.00;;;;;;;14.44;100.00;93399.52;1885930;76;21682;-81
2021/07/11 00:37:38;;;;;;;6.28;5.67;;;;;;;14.40;100.00;93396.66;1886488;76;21182;-81
2021/07/11 00:40:06;;;;;;;6.42;5.50;;;;;;;14.33;100.00;93391.52;1886501;76;21508;-81
2021/07/11 00:42:33;;;;;;;6.33;5.50;;;;;;;14.31;100.00;93397.98;1885985;76;21637;-81
2021/07/11 00:45:05;;;;;;;8.83;6.05;;;;;;;14.28;100.00;93389.24;1849825;76;21045;-81
2021/07/11 00:47:37;;;;;;;6.53;5.85;;;;;;;14.25;100.00;93390.08;1886187;75;21750;-80
2021/07/11 00:50:07;;;;;;;6.10;5.50;;;;;;;14.23;100.00;93399.31;1885216;76;21018;-83
2021/07/11 00:52:34;;;;;;;6.75;5.67;;;;;;;14.20;100.00;93397.41;1885586;75;21181;-81
2021/07/11 00:55:01;;;;;;;8.70;6.12;;;;;;;14.20;100.00;93398.77;1886077;76;21380;-83
2021/07/11 00:57:28;;;;;;;6.05;5.45;;;;;;;14.18;100.00;93389.44;1886054;76;21088;-82
2021/07/11 00:59:56;;;;;;;9.75;5.70;;;;;;;14.15;100.00;93388.33;1848883;76;21129;-82
2021/07/11 01:02:42;;;;;;;10.43;5.83;;;;;;;14.12;100.00;93386.42;1884920;75;21025;-82
2021/07/11 01:05:10;;;;;;;7.58;6.10;;;;;;;14.11;100.00;93390.95;1879816;75;21475;-80
2021/07/11 01:07:45;;;;;;;5.83;5.22;;;;;;;14.09;100.00;93383.16;1876681;76;21038;-83
2021/07/11 01:10:22;;;;;;;6.67;5.28;;;;;;;14.08;100.00;93385.13;1885511;75;21040;-80
2021/07/11 01:12:55;;;;;;;5.65;5.05;;;;;;;14.07;100.00;93385.55;1834738;77;21089;-83
2021/07/11 01:15:23;;;;;;;5.40;4.90;;;;;;;14.03;100.00;93380.14;1883797;76;21049;-82
2021/07/11 01:17:53;;;;;;;6.08;5.00;;;;;;;14.01;100.00;93378.41;1877494;76;21084;-82
2021/07/11 01:20:39;;;;;;;7.47;4.55;;;;;;;14.00;100.00;93380.97;1878740;76;21063;-80
2021/07/11 01:23:09;;;;;;;5.40;4.87;;;;;;;14.02;100.00;93378.58;1847034;76;21014;-80
2021/07/11 01:25:45;;;;;;;5.80;5.28;;;;;;;14.02;100.00;93378.58;1875256;76;21780;-79
2021/07/11 01:30:43;;;;;;;7.05;5.10;;;;;;;14.05;100.00;93373.64;1837710;77;21026;-80
2021/07/11 01:33:11;;;;;;;5.95;5.33;;;;;;;14.08;100.00;93374.18;1873986;75;21084;-80
2021/07/11 01:35:38;;;;;;;7.30;5.50;;;;;;;14.09;100.00;93372.98;1846818;76;21814;-79
2021/07/11 01:38:06;;;;;;;9.05;6.28;;;;;;;14.13;100.00;93376.25;1877165;76;21034;-79
2021/07/11 01:40:32;;;;;;;8.73;5.67;;;;;;;14.16;100.00;93372.09;1884944;76;21094;-78
2021/07/11 01:43:00;;;;;;;5.58;5.08;;;;;;;14.16;100.00;93369.36;1884744;76;21021;-79
2021/07/11 01:45:29;;;;;;;6.30;5.50;;;;;;;14.17;100.00;93375.59;1873727;75;21010;-79
2021/07/11 01:47:56;;;;;;;5.58;5.08;;;;;;;14.16;100.00;93372.09;1880771;76;21049;-80
2021/07/11 01:50:24;;;;;;;6.83;5.85;;;;;;;14.15;100.00;93374.66;1845476;76;21125;-79
2021/07/11 01:53:06;;;;;;;5.72;5.22;;;;;;;14.17;100.00;93372.26;1876480;75;21018;-80
2021/07/11 01:55:32;;;;;;;6.28;5.67;;;;;;;14.17;100.00;93370.89;1884549;75;21643;-79
2021/07/11 01:57:59;;;;;;;6.10;5.50;;;;;;;14.19;100.00;93373.23;1872798;76;21054;-80
2021/07/11 02:00:27;;;;;;;7.70;6.62;;;;;;;14.22;100.00;93377.27;1881315;76;21715;-80
2021/07/11 02:02:54;;;;;;;11.00;5.72;;;;;;;14.26;100.00;93377.20;1877014;75;21033;-79
2021/07/11 02:05:25;;;;;;;7.55;5.90;;;;;;;14.26;100.00;93370.36;1875934;76;21541;-80
2021/07/11 02:07:54;;;;;;;7.20;5.50;;;;;;;14.22;100.00;93373.16;1882133;76;21096;-80
2021/07/11 02:10:21;;;;;;;12.65;5.50;;;;;;;14.16;100.00;93377.56;1872332;76;21034;-79
2021/07/11 02:12:58;;;;;;;9.10;5.47;;;;;;;14.13;100.00;93374.89;1882654;76;21096;-79
2021/07/11 02:15:29;;;;;;;7.33;5.45;;;;;;;14.10;100.00;93379.22;1878344;76;21101;-79
2021/07/11 02:17:58;;;;;;;5.97;5.33;;;;;;;14.11;100.00;93384.13;1880296;76;21361;-82
2021/07/11 02:20:27;;;;;;;5.95;5.37;;;;;;;14.11;100.00;93384.89;1878293;76;21076;-80
2021/07/11 02:22:57;;;;;;;7.70;5.25;;;;;;;14.10;100.00;93384.69;1874278;76;21089;-80
2021/07/11 02:25:24;;;;;;;6.75;5.83;;;;;;;14.08;100.00;93398.80;1848983;76;21061;-80
2021/07/11 02:27:52;;;;;;;5.97;5.40;;;;;;;14.08;100.00;93393.92;1885398;76;21738;-80
2021/07/11 02:30:25;;;;;;;5.80;5.28;;;;;;;14.07;100.00;93389.05;1885843;75;21041;-81
2021/07/11 02:32:51;;;;;;;5.92;5.33;;;;;;;14.05;100.00;93390.05;1885193;76;20989;-80
2021/07/11 02:35:34;;;;;;;7.10;5.60;;;;;;;14.00;100.00;93389.77;1871426;76;21026;-79
2021/07/11 02:38:02;;;;;;;6.10;5.53;;;;;;;13.96;100.00;93391.80;1783020;78;21262;-78
2021/07/11 02:40:34;;;;;;;8.05;4.90;;;;;;;13.92;100.00;93392.45;1808624;79;21123;-79
2021/07/11 02:43:05;;;;;;;5.70;5.20;;;;;;;13.91;100.00;93390.89;1830537;78;21047;-78
2021/07/11 02:45:34;;;;;;;8.70;6.00;;;;;;;13.86;100.00;93388.05;1815055;77;21104;-80
2021/07/11 02:48:01;;;;;;;7.47;5.05;;;;;;;13.83;100.00;93389.64;1805029;78;22352;-79
2021/07/11 02:50:27;;;;;;;5.50;4.83;;;;;;;13.85;100.00;93392.74;1815321;78;21058;-80
2021/07/11 02:52:56;;;;;;;6.62;5.75;;;;;;;13.88;100.00;93388.98;1827474;77;21816;-80
2021/07/11 02:55:27;;;;;;;8.40;5.65;;;;;;;13.87;100.00;93392.31;1834606;77;21560;-80
2021/07/11 02:58:07;;;;;;;7.62;6.55;;;;;;;13.91;100.00;93391.66;1828372;78;21054;-79
2021/07/11 03:00:42;;;;;;;7.72;5.75;;;;;;;13.94;100.00;93393.56;1811423;76;21480;-79
2021/07/11 03:03:11;;;;;;;6.22;5.50;;;;;;;13.93;100.00;93389.30;1868850;76;20966;-81
2021/07/11 03:05:39;;;;;;;7.40;6.15;;;;;;;13.92;100.00;93393.83;1867012;76;21104;-80
2021/07/11 03:08:08;;;;;;;7.87;5.78;;;;;;;13.89;100.00;93394.05;1863359;76;21011;-79
2021/07/11 03:10:35;;;;;;;6.58;5.40;;;;;;;13.87;100.00;93394.28;1819509;76;22155;-82
2021/07/11 03:13:05;;;;;;;9.13;5.35;;;;;;;13.84;100.00;93389.05;1812040;76;21098;-80
2021/07/11 03:15:33;;;;;;;7.45;6.05;;;;;;;13.83;100.00;93400.58;1825064;77;21380;-78
2021/07/11 03:18:01;;;;;;;7.03;6.00;;;;;;;13.79;100.00;93401.23;1830942;77;21121;-79
2021/07/11 03:20:29;;;;;;;9.00;6.22;;;;;;;13.78;100.00;93393.45;1830440;77;21062;-83
2021/07/11 03:22:56;;;;;;;6.67;5.97;;;;;;;13.77;100.00;93396.02;1833890;77;21640;-81
2021/07/11 03:25:25;;;;;;;7.10;5.10;;;;;;;13.74;100.00;93385.91;1783366;80;21953;-81
2021/07/11 03:27:51;;;;;;;7.37;5.87;;;;;;;13.73;100.00;93391.20;1768591;80;21070;-80
2021/07/11 03:30:20;;;;;;;9.13;6.03;;;;;;;13.70;100.00;93388.70;1844432;76;21927;-80
2021/07/11 03:32:56;;;;;;;8.20;5.92;;;;;;;13.68;100.00;93388.33;1877718;76;21017;-80
2021/07/11 03:35:39;;;;;;;8.90;6.35;;;;;;;13.65;100.00;93384.29;1872253;76;21038;-82
2021/07/11 03:38:10;;;;;;;6.22;5.62;;;;;;;13.63;100.00;93386.68;1845940;75;21587;-82
2021/07/11 03:40:42;;;;;;;7.70;6.22;;;;;;;13.62;100.00;93389.24;1853089;77;21050;-82
2021/07/11 03:43:10;;;;;;;5.83;5.12;;;;;;;13.62;100.00;93387.88;1833491;77;21377;-82
2021/07/11 03:45:38;;;;;;;5.80;5.28;;;;;;;13.58;100.00;93384.60;1816227;77;21050;-81
2021/07/11 03:48:13;;;;;;;6.53;5.92;;;;;;;13.58;100.00;93393.39;1808944;76;21671;-82
2021/07/11 03:50:41;;;;;;;6.33;5.72;;;;;;;13.56;100.00;93391.66;1775080;79;21090;-79
2021/07/11 03:53:08;;;;;;;7.87;7.08;;;;;;;13.54;100.00;93389.35;1774990;80;21108;-79
2021/07/11 03:55:37;;;;;;;8.60;6.08;;;;;;;13.55;100.00;93386.80;1769610;81;21090;-78
2021/07/11 03:58:04;;;;;;;7.95;5.55;;;;;;;13.57;100.00;93380.91;1743605;80;21083;-81
2021/07/11 04:00:31;;;;;;;6.60;5.70;;;;;;;13.59;100.00;93388.10;1789482;78;21144;-81
2021/07/11 04:02:58;;;;;;;7.55;5.60;;;;;;;13.59;100.00;93389.47;1793405;78;21015;-80
2021/07/11 04:05:28;;;;;;;6.20;5.60;;;;;;;13.58;100.00;93387.93;1795899;78;21054;-82
2021/07/11 04:07:55;;;;;;;6.90;5.28;;;;;;;13.60;100.00;93389.05;1810266;79;21974;-82
2021/07/11 04:10:26;;;;;;;7.40;5.65;;;;;;;13.64;100.00;93391.72;1825340;78;21069;-81
2021/07/11 04:12:53;;;;;;;8.28;6.72;;;;;;;13.67;100.00;93385.43;1811079;77;21046;-80
2021/07/11 04:15:21;;;;;;;8.08;7.15;;;;;;;13.68;100.00;93389.70;1817062;77;21105;-82
2021/07/11 04:17:49;;;;;;;8.03;6.35;;;;;;;13.67;100.00;93384.66;1818439;77;21092;-82
2021/07/11 04:20:16;;;;;;;7.22;6.53;;;;;;;13.68;100.00;93388.93;1843663;77;21202;-81
2021/07/11 04:22:42;;;;;;;7.25;6.42;;;;;;;13.70;100.00;93389.30;1826678;78;21086;-82
2021/07/11 04:25:10;;;;;;;7.08;6.03;;;;;;;13.72;100.00;93382.81;1841237;76;21501;-83
2021/07/11 04:27:38;;;;;;;6.30;5.37;;;;;;;13.76;100.00;93384.89;1834933;77;21477;-80
2021/07/11 04:30:09;;;;;;;7.87;6.25;;;;;;;13.81;100.00;93385.20;1832998;76;21026;-80
2021/07/11 04:32:35;;;;;;;6.67;6.08;;;;;;;13.84;100.00;93385.74;1841962;77;21548;-81
2021/07/11 04:35:04;;;;;;;10.15;8.15;;;;;;;13.89;100.00;93380.98;1826204;78;21019;-79
2021/07/11 04:37:30;;;;;;;7.08;6.37;;;;;;;13.93;100.00;93395.36;1810892;77;21017;-82
2021/07/11 04:39:57;;;;;;;6.65;5.95;;;;;;;13.94;100.00;93387.33;1809885;79;21018;-81
2021/07/11 04:42:25;;;;;;;9.90;7.55;;;;;;;13.97;100.00;93385.13;1826696;77;21010;-81
2021/07/11 04:44:53;;;;;;;7.10;6.40;;;;;;;14.00;100.00;93384.30;1843351;77;21172;-81
2021/07/11 04:49:49;;;;;;;7.22;6.50;;;;;;;14.10;100.00;93386.05;1848810;77;21583;-80
2021/07/11 04:52:16;;;;;;;8.40;6.15;;;;;;;14.16;100.00;93384.39;1852254;76;21034;-80
2021/07/11 04:54:43;;;;;;;7.62;6.85;;;;;;;14.21;100.00;93378.43;1862504;76;21066;-82
2021/07/11 04:57:13;;;;;;;7.70;6.80;;;;;;;14.26;100.00;93379.34;1864137;76;21449;-82
2021/07/11 04:59:41;;;;;;;9.73;7.00;;;;;;;14.33;100.00;93379.80;1840866;76;21065;-80
2021/07/11 05:02:08;;;;;;;8.08;7.28;;;;;;;14.41;100.00;93373.60;1850086;76;21053;-80
2021/07/11 05:04:35;;;;;;;12.78;7.15;;;;;;;14.47;100.00;93380.11;1839853;76;21472;-80
2021/07/11 05:07:03;;;;;;;13.75;8.23;;;;;;;14.54;100.00;93375.30;1816900;77;21073;-81
2021/07/11 05:09:32;;;;;;;13.55;7.92;;;;;;;14.60;100.00;93372.86;1833605;76;21841;-82
2021/07/11 05:11:58;;;;;;;15.08;9.43;;;;;;;14.67;100.00;93375.45;1864282;76;21509;-81
2021/07/11 05:14:24;;;;;;;10.40;8.15;;;;;;;14.71;100.00;93374.78;1858269;76;21145;-81
2021/07/11 05:16:53;;;;;;;11.57;7.47;;;;;;;14.79;100.00;93380.88;1806901;77;21760;-81
2021/07/11 05:19:21;;;;;;;10.48;8.70;;;;;;;14.87;100.00;93374.66;1782159;79;21053;-79
2021/07/11 05:21:48;;;;;;;14.28;11.50;;;;;;;14.93;100.00;93371.58;1789437;76;21535;-81
2021/07/11 05:24:14;;;;;;;17.70;12.05;;;;;;;14.97;100.00;93373.64;1822074;77;21023;-82
2021/07/11 05:26:43;;;;;;;16.75;12.23;;;;;;;15.05;100.00;93375.05;1854156;76;21691;-79
2021/07/11 05:29:10;;;;;;;18.07;12.37;;;;;;;15.15;100.00;93367.19;1849990;76;21550;-79
2021/07/11 05:31:38;;;;;;;16.25;13.62;;;;;;;15.23;100.00;93370.53;1863519;76;21022;-80
2021/07/11 05:34:05;;;;;;;19.27;14.85;;;;;;;15.33;100.00;93366.02;1837289;75;21108;-80
2021/07/11 05:36:32;;;;;;;22.30;16.45;;;;;;;15.42;100.00;93371.67;1824119;77;21046;-81
2021/07/11 05:38:59;;;;;;;20.75;17.30;;;;;;;15.51;100.00;93367.15;1838659;76;21156;-80
2021/07/11 05:41:26;;;;;;;26.27;16.52;;;;;;;15.62;100.00;93368.88;1865438;76;21085;-81
2021/07/11 05:43:52;;;;;;;17.60;14.90;;;;;;;15.65;100.00;93359.23;1852715;76;21906;-81
2021/07/11 05:49:28;;;;;;;24.80;15.58;;;;;;;15.71;100.00;93360.84;1866105;76;21055;-82
2021/07/11 05:51:54;;;;;;;24.65;16.65;;;;;;;15.74;100.00;93360.75;1859685;75;21060;-81
2021/07/11 05:54:22;;;;;;;22.50;17.48;;;;;;;15.78;100.00;93357.92;1841468;76;21000;-82
2021/07/11 05:56:49;;;;;;;23.80;17.50;;;;;;;15.84;100.00;93352.11;1853615;75;21024;-81
2021/07/11 06:03:06;;;;;;;23.30;16.70;;;;;;;15.97;100.00;93353.54;1848157;76;22426;-80
2021/07/11 06:05:39;;;;;;;23.67;18.15;;;;;;;16.02;100.00;93355.17;1849036;76;21658;-79
2021/07/11 06:08:06;;;;;;;20.92;17.12;;;;;;;16.12;100.00;93352.57;1839638;75;21120;-80
2021/07/11 06:10:33;;;;;;;23.20;17.85;;;;;;;16.22;100.00;93350.16;1864191;74;21357;-82
2021/07/11 06:13:00;;;;;;;22.40;18.52;;;;;;;16.32;100.00;93347.70;1835852;75;21122;-81
2021/07/11 06:15:28;;;;;;;25.48;19.17;;;;;;;16.41;100.00;93343.75;1849045;75;21070;-78
2021/07/11 06:17:54;;;;;;;21.15;17.62;;;;;;;16.47;100.00;93350.27;1850554;75;21054;-82
2021/07/11 06:20:38;;;;;;;20.48;17.32;;;;;;;16.52;100.00;93343.47;1826913;77;21064;-82
2021/07/11 06:23:04;;;;;;;20.20;17.45;;;;;;;16.49;100.00;93342.34;1842693;75;21045;-81
2021/07/11 06:25:31;;;;;;;18.73;16.73;;;;;;;16.48;100.00;93337.30;1844839;75;22064;-80
2021/07/11 06:27:58;;;;;;;18.80;15.28;;;;;;;16.53;100.00;93343.62;1846163;75;21029;-83
2021/07/11 06:30:25;;;;;;;18.40;15.13;;;;;;;16.64;100.00;93340.58;1829088;76;21079;-83
2021/07/11 06:32:55;;;;;;;17.73;15.83;;;;;;;16.80;100.00;93340.53;1788942;77;21042;-82
2021/07/11 06:35:24;;;;;;;17.82;15.78;;;;;;;16.91;100.00;93335.50;1805084;77;21632;-81
2021/07/11 06:37:50;;;;;;;17.30;15.40;;;;;;;17.03;100.00;93333.20;1840347;75;21141;-82
2021/07/11 06:43:42;;;;;;;21.73;17.17;;;;;;;17.33;100.00;93331.89;1865622;75;21017;-81
2021/07/11 06:46:09;;;;;;;18.95;15.88;;;;;;;17.53;100.00;93329.70;1814239;75;21149;-80
2021/07/11 06:48:58;;;;;;;23.83;18.80;;;;;;;17.68;100.00;93325.28;1799702;77;21066;-81
2021/07/11 06:51:28;;;;;;;21.73;18.42;;;;;;;17.89;100.00;93328.56;1768622;77;21627;-79
2021/07/11 06:53:55;;;;;;;20.97;17.00;;;;;;;18.18;100.00;93328.37;1786131;78;21143;-79
2021/07/11 06:56:25;;;;;;;19.27;16.27;;;;;;;18.42;100.00;93328.09;1749212;79;21053;-79
2021/07/11 06:58:55;;;;;;;23.90;17.75;;;;;;;18.60;98.64;93328.08;1802608;78;21070;-81
2021/07/11 07:24:33;;;;;;;19.75;14.75;;;;;;;20.41;86.79;93316.64;1768926;79;23352;-81
2021/07/11 07:27:08;;;;;;;16.70;14.93;;;;;;;20.40;85.89;93323.41;1768993;79;21084;-80
2021/07/11 07:29:35;;;;;;;16.05;14.15;;;;;;;20.45;85.32;93329.69;1792403;77;21320;-82
2021/07/11 07:45:43;;;;;;;11.50;10.35;;;;;;;21.42;78.72;93322.03;1867214;75;22737;-82
2021/07/11 07:49:30;;;;;;;12.58;10.88;;;;;;;21.55;75.64;93318.45;1858462;76;22709;-84
2021/07/11 07:51:56;;;;;;;11.70;10.10;;;;;;;21.61;75.44;93321.95;1818884;76;21096;-81
2021/07/11 07:54:25;;;;;;;14.73;12.95;;;;;;;21.66;73.96;93319.30;1789367;77;21364;-82
2021/07/11 08:01:12;;;;;;;14.30;8.83;;;;;;;21.85;70.75;93313.05;1866177;75;21988;-87
2021/07/11 08:03:42;;;;;;;10.18;9.05;;;;;;;21.91;70.78;93308.41;1741919;79;21024;-83
2021/07/11 08:06:09;;;;;;;12.18;9.60;;;;;;;21.94;70.26;93310.25;1770273;79;21440;-82
2021/07/11 08:08:35;;;;;;;16.82;9.23;;;;;;;21.97;70.41;93314.85;1772720;78;21480;-81
2021/07/11 08:11:06;;;;;;;10.28;8.38;;;;;;;22.02;69.08;93308.66;1790173;78;21574;-81
2021/07/11 08:13:36;;;;;;;16.70;12.68;;;;;;;22.10;66.86;93305.53;1799001;78;21143;-82
2021/07/11 08:16:03;;;;;;;11.10;9.38;;;;;;;22.18;68.15;93306.11;1795589;78;21005;-82
2021/07/11 08:18:33;;;;;;;10.48;9.43;;;;;;;22.20;66.55;93304.27;1810806;77;21064;-83
2021/07/11 08:20:59;;;;;;;10.85;9.25;;;;;;;22.21;66.35;93307.18;1806483;78;21089;-86
2021/07/11 08:23:27;;;;;;;10.25;9.20;;;;;;;22.17;66.43;93302.44;1801734;78;21110;-83
2021/07/11 08:25:54;;;;;;;11.28;8.93;;;;;;;22.17;67.21;93305.21;1791000;78;21113;-83
2021/07/11 08:28:21;;;;;;;8.83;7.95;;;;;;;22.22;66.89;93306.70;1802276;78;21120;-82
2021/07/11 08:30:48;;;;;;;10.53;8.48;;;;;;;22.28;66.57;93307.59;1739842;78;21460;-81
2021/07/11 08:33:15;;;;;;;10.20;7.92;;;;;;;22.29;66.35;93306.34;1732197;80;21027;-81
2021/07/11 08:35:43;;;;;;;9.83;7.90;;;;;;;22.32;66.33;93295.56;1735128;80;21140;-82
2021/07/11 08:38:10;;;;;;;8.75;7.87;;;;;;;22.34;66.38;93304.94;1736130;80;21090;-79
2021/07/11 08:40:36;;;;;;;8.73;7.83;;;;;;;22.38;66.19;93304.14;1735179;81;21132;-82
2021/07/11 08:43:07;;;;;;;8.78;6.80;;;;;;;22.42;66.42;93301.95;1730861;80;22256;-81
2021/07/11 08:45:37;;;;;;;8.00;6.87;;;;;;;22.47;65.61;93295.73;1733125;80;21130;-83
2021/07/11 08:48:04;;;;;;;8.38;7.35;;;;;;;22.51;64.16;93301.86;1765717;79;21086;-85
2021/07/11 08:50:34;;;;;;;9.60;7.10;;;;;;;22.58;63.82;93299.97;1792999;78;21073;-83
2021/07/11 08:53:00;;;;;;;9.30;8.10;;;;;;;22.57;62.27;93301.98;1786712;77;21120;-83
2021/07/11 08:55:28;;;;;;;9.53;6.80;;;;;;;22.53;62.30;93295.23;1800413;78;22161;-84
2021/07/11 08:57:57;;;;;;;7.72;6.67;;;;;;;22.52;61.45;93296.45;1813555;78;21054;-81
2021/07/11 09:00:35;;;;;;;7.97;6.70;;;;;;;22.54;62.47;93296.00;1815840;78;21144;-83
2021/07/11 09:03:09;;;;;;;9.55;6.92;;;;;;;22.60;62.75;93289.16;1814245;76;21075;-81
2021/07/11 09:05:41;;;;;;;7.47;6.70;;;;;;;22.62;63.20;93295.00;1818095;77;21072;-82
2021/07/11 09:08:23;;;;;;;8.43;6.65;;;;;;;22.66;62.30;93288.03;1848016;75;21278;-84
2021/07/11 09:10:56;;;;;;;8.45;6.42;;;;;;;22.75;62.25;93285.19;1838635;76;21550;-84
2021/07/11 09:13:25;;;;;;;9.45;6.70;;;;;;;22.80;61.52;93283.75;1836605;75;21015;-83
2021/07/11 09:15:55;;;;;;;8.28;7.33;;;;;;;22.82;60.25;93279.87;1805257;77;21082;-81
2021/07/11 09:18:32;;;;;;;7.00;6.05;;;;;;;22.83;60.37;93280.03;1822435;77;22114;-83
2021/07/11 09:21:06;;;;;;;8.58;6.62;;;;;;;22.89;60.32;93276.72;1818455;77;21097;-81
2021/07/11 09:23:32;;;;;;;7.77;6.23;;;;;;;22.91;59.18;93281.20;1809623;77;21443;-83
2021/07/11 09:26:07;;;;;;;8.98;6.28;;;;;;;22.92;59.06;93273.02;1765424;79;21076;-85
2021/07/11 09:28:36;;;;;;;7.12;6.42;;;;;;;22.90;58.91;93269.16;1801527;77;21079;-82
2021/07/11 09:31:11;;;;;;;9.95;8.63;;;;;;;22.90;59.46;93274.70;1808591;78;21591;-80
2021/07/11 09:33:42;;;;;;;9.00;7.60;;;;;;;22.90;60.47;93269.92;1811010;78;21196;-82
2021/07/11 09:36:19;;;;;;;10.08;6.62;;;;;;;22.91;58.24;93267.94;1821496;76;21045;-84
2021/07/11 09:38:48;;;;;;;8.30;6.33;;;;;;;22.91;58.34;93271.50;1837565;76;21049;-82
2021/07/11 09:41:16;;;;;;;8.70;6.15;;;;;;;22.93;58.88;93271.02;1841324;76;21603;-83
2021/07/11 09:43:45;;;;;;;6.12;5.53;;;;;;;22.97;57.11;93270.20;1807262;78;21521;-83
2021/07/11 09:46:15;;;;;;;7.65;6.20;;;;;;;22.99;57.66;93276.80;1775318;79;21014;-81
2021/07/11 09:48:41;;;;;;;8.40;5.87;;;;;;;23.03;58.21;93268.30;1791442;78;21041;-84
2021/07/11 09:51:26;;;;;;;6.95;5.35;;;;;;;23.01;57.28;93265.98;1793351;78;22238;-81
2021/07/11 09:54:12;;;;;;;11.25;5.83;;;;;;;22.98;56.58;93266.97;1784642;79;21163;-82
2021/07/11 09:56:58;;;;;;;7.17;5.90;;;;;;;22.95;58.07;93260.22;1782962;79;21584;-82
2021/07/11 09:59:33;;;;;;;9.48;5.85;;;;;;;22.92;58.13;93261.17;1810377;77;21336;-80
2021/07/11 10:02:04;;;;;;;9.38;5.87;;;;;;;22.90;57.26;93268.53;1782398;78;21472;-78
2021/07/11 10:04:33;;;;;;;9.63;6.17;;;;;;;22.84;55.33;93266.94;1803457;77;21264;-79
2021/07/11 10:07:25;;;;;;;7.83;6.70;;;;;;;22.83;54.89;93269.54;1781286;78;21656;-81
2021/07/11 10:09:55;;;;;;;7.80;6.75;;;;;;;22.82;56.17;93266.01;1775647;78;21033;-79
2021/07/11 10:12:25;;;;;;;8.70;6.92;;;;;;;22.80;56.03;93264.35;1807474;77;21512;-82
2021/07/11 10:14:54;;;;;;;9.48;7.22;;;;;;;22.77;56.33;93268.07;1772843;77;21084;-79
2021/07/11 10:17:22;;;;;;;7.08;6.47;;;;;;;22.74;55.35;93255.92;1815363;77;21108;-82
2021/07/11 10:19:51;;;;;;;11.18;6.90;;;;;;;22.72;54.44;93263.20;1783066;77;21415;-78
2021/07/11 10:22:18;;;;;;;8.58;7.78;;;;;;;22.73;55.12;93259.95;1773064;79;21042;-79
2021/07/11 10:24:51;;;;;;;12.98;8.15;;;;;;;22.78;56.83;93268.20;1777044;79;21478;-78
2021/07/11 10:27:22;;;;;;;11.15;6.80;;;;;;;22.81;56.12;93264.48;1786853;78;21061;-77
2021/07/11 10:29:51;;;;;;;9.08;7.00;;;;;;;22.83;55.94;93263.41;1788487;78;21049;-82
2021/07/11 10:32:43;;;;;;;10.82;8.05;;;;;;;22.86;55.76;93262.42;1811005;78;21032;-79
2021/07/11 10:35:21;;;;;;;10.90;7.80;;;;;;;22.87;55.68;93257.64;1761065;79;21065;-80
2021/07/11 10:37:54;;;;;;;8.18;7.37;;;;;;;22.90;57.41;93258.84;1829371;76;21116;-84
2021/07/11 10:40:24;;;;;;;10.25;6.70;;;;;;;22.96;57.80;93272.21;1818606;76;22004;-82
2021/07/11 10:42:51;;;;;;;12.75;7.10;;;;;;;23.05;58.55;93270.58;1790983;78;21143;-81
2021/07/11 10:45:20;;;;;;;7.30;6.60;;;;;;;23.16;59.60;93266.60;1782633;77;21039;-79
2021/07/11 10:47:47;;;;;;;10.43;6.92;;;;;;;23.26;55.94;93270.18;1809616;77;21123;-81
2021/07/11 10:50:29;;;;;;;7.87;7.12;;;;;;;23.33;56.20;93273.81;1782541;78;21324;-77
2021/07/11 10:53:00;;;;;;;16.12;12.65;;;;;;;23.34;56.81;93269.79;1777752;78;21093;-80
2021/07/11 10:55:37;;;;;;;13.03;8.08;;;;;;;23.33;57.98;93261.33;1788028;78;21108;-82
2021/07/11 10:58:17;;;;;;;11.20;7.40;;;;;;;23.37;58.55;93260.52;1767170;78;21035;-83
2021/07/11 11:00:47;;;;;;;11.30;7.37;;;;;;;23.39;57.83;93250.44;1766765;77;21083;-78
2021/07/11 11:03:25;;;;;;;9.18;7.83;;;;;;;23.42;58.14;93246.70;1775250;79;21138;-78
2021/07/11 11:05:54;;;;;;;8.33;7.45;;;;;;;23.42;56.15;93266.13;1776368;79;21030;-79
2021/07/11 11:08:25;;;;;;;8.60;7.67;;;;;;;23.45;57.42;93264.41;1775243;79;21694;-80
2021/07/11 11:10:54;;;;;;;9.23;6.95;;;;;;;23.42;56.03;93264.74;1773370;79;21004;-77
2021/07/11 11:13:25;;;;;;;9.95;7.55;;;;;;;23.38;56.57;93261.41;1784511;77;21136;-78
2021/07/11 11:15:59;;;;;;;10.60;8.35;;;;;;;23.35;57.48;93260.97;1781842;79;21166;-80
2021/07/11 11:18:38;;;;;;;8.68;7.53;;;;;;;23.31;57.29;93256.25;1786897;78;21080;-77
2021/07/11 11:21:18;;;;;;;10.60;7.47;;;;;;;23.32;57.58;93260.57;1805310;77;21072;-81
2021/07/11 11:26:24;;;;;;;13.38;6.75;;;;;;;23.38;58.89;93248.92;1806672;77;22024;-79
2021/07/11 11:28:53;;;;;;;11.22;7.72;;;;;;;23.40;58.12;93260.94;1795003;76;21127;-80
2021/07/11 11:31:24;;;;;;;8.90;7.47;;;;;;;23.38;58.45;93247.53;1804968;77;20992;-79
2021/07/11 11:34:00;;;;;;;10.25;6.85;;;;;;;23.42;58.53;93238.38;1821908;77;21449;-78
2021/07/11 11:36:39;;;;;;;10.78;7.37;;;;;;;23.49;58.20;93244.16;1798707;77;21387;-78
2021/07/11 11:39:37;;;;;;;12.88;7.75;;;;;;;23.57;58.76;93240.36;1758991;79;21565;-77
2021/07/11 11:42:05;;;;;;;7.37;6.67;;;;;;;23.68;57.95;93229.45;1741392;80;21119;-80
2021/07/11 11:44:32;;;;;;;15.05;8.85;;;;;;;23.77;57.06;93239.05;1780018;78;21698;-81
2021/07/11 11:47:03;;;;;;;7.05;6.35;;;;;;;23.80;57.11;93240.07;1770844;77;21097;-81
2021/07/11 11:49:32;;;;;;;7.83;7.03;;;;;;;23.80;56.34;93245.63;1789088;77;21022;-81
2021/07/11 11:52:07;;;;;;;11.33;7.78;;;;;;;23.78;56.00;93240.56;1811680;77;21068;-81
2021/07/11 11:54:40;;;;;;;14.13;7.67;;;;;;;23.78;56.60;93241.20;1822833;76;21156;-82
2021/07/11 11:59:49;;;;;;;8.80;7.40;;;;;;;23.84;56.84;93233.69;1791188;77;21045;-80
2021/07/11 12:02:29;;;;;;;8.20;7.12;;;;;;;23.91;56.93;93236.05;1788420;78;21579;-80
2021/07/11 12:04:55;;;;;;;13.25;7.72;;;;;;;23.99;57.03;93224.66;1789035;79;21020;-80
2021/07/11 12:07:24;;;;;;;7.85;6.50;;;;;;;24.03;57.69;93230.77;1798535;77;21118;-83
2021/07/11 12:10:00;;;;;;;10.13;6.12;;;;;;;24.04;56.00;93228.78;1787528;77;21016;-81
2021/07/11 12:12:26;;;;;;;6.92;5.92;;;;;;;23.93;56.13;93225.99;1756204;79;21088;-80
2021/07/11 12:14:59;;;;;;;9.00;7.00;;;;;;;23.80;55.85;93225.56;1810094;77;21100;-81
2021/07/11 12:17:46;;;;;;;8.00;6.37;;;;;;;23.74;56.85;93219.19;1751115;77;21138;-80
2021/07/11 12:20:28;;;;;;;8.95;6.70;;;;;;;23.78;56.96;93218.36;1786280;79;21110;-79
2021/07/11 12:22:56;;;;;;;7.58;6.90;;;;;;;23.87;56.05;93213.28;1783769;78;21093;-79
2021/07/11 12:25:29;;;;;;;8.03;6.53;;;;;;;23.92;55.30;93216.75;1777929;77;21103;-78
2021/07/11 12:30:54;;;;;;;8.25;6.78;;;;;;;24.05;56.91;93221.34;1793841;77;21101;-82
2021/07/11 12:33:33;;;;;;;6.85;6.15;;;;;;;24.13;55.85;93214.73;1811746;77;21124;-81
2021/07/11 12:36:04;;;;;;;7.80;6.37;;;;;;;24.20;55.86;93220.63;1794790;78;21083;-82
2021/07/11 12:38:38;;;;;;;8.60;6.28;;;;;;;24.28;53.37;93226.53;1788079;78;21663;-80
2021/07/11 12:41:07;;;;;;;9.33;5.72;;;;;;;24.27;53.94;93212.50;1805871;77;21081;-79
2021/07/11 12:43:51;;;;;;;6.00;5.40;;;;;;;24.27;53.74;93214.52;1774469;78;21015;-79